createdAt,value
2023-09-22T00:01:05.582Z,5
2023-09-22T00:16:05.664Z,4
2023-09-22T00:31:04.870Z,4
2023-09-22T00:46:05.618Z,4
2023-09-22T01:01:05.350Z,3
2023-09-22T01:16:05.823Z,4
2023-09-22T01:31:05.020Z,4
2023-09-22T01:46:05.703Z,4
2023-09-22T02:01:05.322Z,4
2023-09-22T02:16:05.744Z,4
2023-09-22T02:31:05.338Z,4
2023-09-22T02:46:04.853Z,4
2023-09-22T03:01:05.533Z,4
2023-09-22T03:16:04.725Z,5
2023-09-22T03:31:05.511Z,4
2023-09-22T03:46:05.143Z,4
2023-09-22T04:01:05.435Z,4
2023-09-22T04:16:05.075Z,5
2023-09-22T04:31:05.254Z,4
2023-09-22T04:46:04.788Z,4
2023-09-22T05:01:05.313Z,4
2023-09-22T05:16:05.717Z,5
2023-09-22T05:31:05.555Z,6
2023-09-22T05:46:05.697Z,6
2023-09-22T06:01:05.076Z,5
2023-09-22T06:16:05.280Z,4
2023-09-22T06:31:05.131Z,4
2023-09-22T06:46:04.938Z,3
2023-09-22T07:01:05.819Z,2
2023-09-22T07:16:05.195Z,2
2023-09-22T07:31:05.538Z,2
2023-09-22T07:46:05.794Z,2
2023-09-22T08:01:05.057Z,2
2023-09-22T08:16:05.539Z,2
2023-09-22T08:31:05.718Z,2
2023-09-22T08:46:04.422Z,1
2023-09-22T09:01:05.439Z,1
2023-09-22T09:16:05.712Z,2
2023-09-22T09:31:05.200Z,1
2023-09-22T09:46:04.869Z,1
2023-09-22T10:01:04.915Z,2
2023-09-22T10:16:04.746Z,1
2023-09-22T10:45:23.864Z,1
2023-09-22T11:00:24.332Z,1
2023-09-22T11:15:23.598Z,2
2023-09-22T11:30:23.998Z,1
2023-09-22T11:45:23.646Z,1
2023-09-22T12:00:23.763Z,1
2023-09-22T12:15:24.335Z,1
2023-09-22T12:30:23.598Z,1
2023-09-22T12:45:23.715Z,1
2023-09-22T13:00:24.302Z,1
2023-09-22T13:15:23.658Z,1
2023-09-22T13:45:33.334Z,0
2023-09-22T13:45:33.348Z,0
2023-09-22T14:00:23.546Z,1
2023-09-22T14:15:24.509Z,1
2023-09-22T14:30:23.557Z,1
2023-09-22T14:45:23.996Z,1
2023-09-22T15:00:24.315Z,1
2023-09-22T15:15:23.998Z,1
2023-09-22T15:30:24.371Z,2
2023-09-22T15:45:23.869Z,2
2023-09-22T16:00:24.077Z,1
2023-09-22T16:15:24.171Z,3
2023-09-22T16:30:24.529Z,2
2023-09-22T16:45:24.433Z,3
2023-09-22T17:00:24.557Z,3
2023-09-22T17:15:24.277Z,2
2023-09-22T17:30:23.729Z,3
2023-09-22T17:45:24.292Z,4
2023-09-22T18:00:24.576Z,4
2023-09-22T18:15:24.405Z,4
2023-09-22T18:30:23.647Z,2
2023-09-22T18:45:23.649Z,5
2023-09-22T19:00:23.834Z,3
2023-09-22T19:15:24.297Z,3
2023-09-22T19:30:23.535Z,3
2023-09-22T19:45:24.486Z,4
2023-09-22T20:00:24.513Z,4
2023-09-22T20:15:23.568Z,3
2023-09-22T20:30:24.372Z,3
2023-09-22T20:45:24.706Z,3
2023-09-22T21:00:23.869Z,4
2023-09-22T21:15:24.432Z,4
2023-09-22T21:30:24.205Z,4
2023-09-22T21:45:24.535Z,5
2023-09-22T22:00:24.352Z,8
2023-09-22T22:15:24.085Z,7
2023-09-22T22:30:23.903Z,4
2023-09-22T22:45:24.551Z,5
2023-09-22T23:00:24.561Z,7
2023-09-22T23:15:24.708Z,8
2023-09-22T23:30:23.989Z,21
2023-09-22T23:45:24.085Z,12
